createdAt,value
2019-05-11T00:01:38.780Z,2.37
2019-05-11T00:04:05.177Z,2.43
2019-05-11T00:06:31.486Z,2.57
2019-05-11T00:08:57.673Z,2.80
2019-05-11T00:11:23.853Z,2.40
2019-05-11T00:13:50.033Z,2.47
2019-05-11T00:16:19.038Z,2.80
2019-05-11T00:18:44.317Z,2.90
2019-05-11T00:21:10.698Z,2.50
2019-05-11T00:23:37.013Z,2.90
2019-05-11T00:26:03.267Z,2.93
2019-05-11T00:28:29.821Z,2.87
2019-05-11T00:30:56.261Z,3.87
2019-05-11T00:33:22.442Z,3.13
2019-05-11T00:35:48.695Z,3.80
2019-05-11T00:38:14.869Z,3.13
2019-05-11T00:40:41.235Z,3.40
2019-05-11T00:43:07.568Z,3.90
2019-05-11T00:45:34.009Z,3.40
2019-05-11T00:48:00.494Z,3.10
2019-05-11T00:50:38.599Z,3.17
2019-05-11T00:52:55.062Z,3.27
2019-05-11T00:55:21.650Z,2.67
2019-05-11T00:57:47.867Z,3.60
2019-05-11T01:00:14.353Z,3.67
2019-05-11T01:02:41.840Z,2.77
2019-05-11T01:05:08.483Z,3.13
2019-05-11T01:07:34.789Z,3.47
2019-05-11T01:10:01.433Z,3.33
2019-05-11T01:12:27.733Z,3.17
2019-05-11T01:14:54.034Z,3.60
2019-05-11T01:17:20.213Z,3.37
2019-05-11T01:19:46.537Z,3.23
2019-05-11T01:22:12.812Z,3.40
2019-05-11T01:24:39.072Z,3.87
2019-05-11T01:27:05.293Z,3.60
2019-05-11T01:29:31.568Z,3.47
2019-05-11T01:31:57.753Z,2.70
2019-05-11T01:34:23.953Z,3.30
2019-05-11T01:36:50.322Z,4.00
2019-05-11T01:39:16.652Z,3.63
2019-05-11T01:41:43.084Z,3.00
2019-05-11T01:44:09.365Z,3.40
2019-05-11T01:46:35.706Z,3.10
2019-05-11T01:49:01.886Z,2.43
2019-05-11T01:51:29.392Z,3.33
2019-05-11T01:53:55.569Z,3.57
2019-05-11T01:56:21.701Z,2.77
2019-05-11T01:58:48.020Z,3.00
2019-05-11T02:01:14.627Z,3.00
2019-05-11T02:03:40.968Z,3.20
2019-05-11T02:06:07.123Z,4.27
2019-05-11T02:08:33.268Z,3.37
2019-05-11T02:11:14.817Z,3.50
2019-05-11T02:13:27.751Z,2.83
2019-05-11T02:15:53.992Z,2.90
2019-05-11T02:18:20.266Z,2.40
2019-05-11T02:20:46.521Z,4.20
2019-05-11T02:23:12.826Z,3.10
2019-05-11T02:25:39.098Z,3.53
2019-05-11T02:28:05.398Z,3.33
2019-05-11T02:30:31.611Z,4.00
2019-05-11T02:32:58.127Z,3.20
2019-05-11T02:35:24.285Z,3.30
2019-05-11T02:37:51.563Z,3.13
2019-05-11T02:40:19.210Z,3.50
2019-05-11T02:42:45.451Z,3.63
2019-05-11T02:45:11.821Z,4.03
2019-05-11T02:47:38.059Z,3.43
2019-05-11T02:50:04.316Z,3.87
2019-05-11T02:52:30.543Z,3.50
2019-05-11T02:54:57.911Z,3.27
2019-05-11T02:57:24.148Z,3.20
2019-05-11T02:59:50.550Z,3.53
2019-05-11T03:02:16.790Z,3.63
2019-05-11T03:04:43.439Z,3.50
2019-05-11T03:07:09.675Z,3.70
2019-05-11T03:09:35.835Z,4.20
2019-05-11T03:12:02.095Z,3.67
2019-05-11T03:14:28.640Z,4.10
2019-05-11T03:17:11.101Z,4.20
2019-05-11T03:19:37.387Z,3.37
2019-05-11T03:22:03.714Z,3.37
2019-05-11T03:24:30.136Z,3.43
2019-05-11T03:26:56.392Z,3.70
2019-05-11T03:29:22.546Z,4.60
2019-05-11T03:31:48.659Z,4.50
2019-05-11T03:34:14.809Z,3.37
2019-05-11T03:36:40.934Z,3.93
2019-05-11T03:39:07.181Z,3.90
2019-05-11T03:41:33.323Z,3.73
2019-05-11T03:43:59.467Z,4.57
2019-05-11T03:46:25.760Z,4.43
2019-05-11T03:48:51.878Z,4.53
2019-05-11T03:51:18.154Z,4.10
2019-05-11T03:53:44.386Z,3.87
2019-05-11T03:56:10.618Z,4.00
2019-05-11T03:58:36.788Z,4.60
2019-05-11T04:01:03.053Z,4.80
2019-05-11T04:03:29.185Z,5.23
2019-05-11T04:05:55.367Z,4.30
2019-05-11T04:08:21.795Z,4.73
2019-05-11T04:10:48.066Z,4.00
2019-05-11T04:13:14.201Z,4.97
2019-05-11T04:15:40.381Z,5.10
2019-05-11T04:18:06.576Z,5.23
2019-05-11T04:20:32.826Z,4.63
2019-05-11T04:22:58.967Z,5.27
2019-05-11T04:25:25.163Z,5.20
2019-05-11T04:27:51.318Z,4.93
2019-05-11T04:30:17.542Z,4.97
2019-05-11T04:32:43.872Z,5.47
2019-05-11T04:35:10.398Z,5.90
2019-05-11T04:37:36.534Z,5.70
2019-05-11T04:40:02.793Z,6.00
2019-05-11T04:42:28.925Z,5.10
2019-05-11T04:44:55.082Z,6.10
2019-05-11T04:47:21.248Z,4.90
2019-05-11T04:49:47.387Z,5.70
2019-05-11T04:52:13.982Z,5.27
2019-05-11T04:54:40.243Z,5.53
2019-05-11T04:57:06.594Z,5.03
2019-05-11T04:59:32.834Z,5.27
2019-05-11T05:01:59.396Z,6.30
2019-05-11T05:04:25.606Z,5.07
2019-05-11T05:06:59.543Z,5.37
2019-05-11T05:09:20.255Z,5.23
2019-05-11T05:11:46.713Z,6.10
2019-05-11T05:14:12.999Z,4.93
2019-05-11T05:16:39.237Z,5.90
2019-05-11T05:19:05.681Z,5.67
2019-05-11T05:21:32.035Z,6.00
2019-05-11T05:23:58.401Z,5.30
2019-05-11T05:26:24.549Z,5.63
2019-05-11T05:28:50.914Z,6.70
2019-05-11T05:31:17.276Z,6.13
2019-05-11T05:33:43.717Z,6.60
2019-05-11T05:36:09.902Z,5.77
2019-05-11T05:38:36.706Z,6.17
2019-05-11T05:41:03.260Z,4.90
2019-05-11T05:43:29.587Z,5.43
2019-05-11T05:45:55.782Z,6.13
2019-05-11T05:48:22.057Z,5.93
2019-05-11T05:50:48.407Z,5.87
2019-05-11T05:53:14.850Z,5.57
2019-05-11T05:55:41.111Z,5.93
2019-05-11T05:58:07.528Z,5.50
2019-05-11T06:00:33.857Z,5.57
2019-05-11T06:03:00.183Z,6.10
2019-05-11T06:05:26.542Z,5.63
2019-05-11T06:07:52.870Z,6.67
2019-05-11T06:10:19.814Z,4.90
2019-05-11T06:12:46.090Z,6.23
2019-05-11T06:15:12.817Z,6.13
2019-05-11T06:17:39.054Z,6.00
2019-05-11T06:20:05.557Z,5.57
2019-05-11T06:22:32.227Z,5.40
2019-05-11T06:24:58.679Z,5.83
2019-05-11T06:27:25.097Z,6.20
2019-05-11T06:29:51.579Z,5.80
2019-05-11T06:32:18.219Z,6.30
2019-05-11T06:34:44.703Z,6.17
2019-05-11T06:37:10.931Z,5.27
2019-05-11T06:39:37.102Z,6.20
2019-05-11T06:42:03.461Z,5.87
2019-05-11T06:44:29.874Z,5.27
2019-05-11T06:46:56.228Z,5.70
2019-05-11T06:49:22.550Z,6.60
2019-05-11T06:51:48.883Z,6.93
2019-05-11T06:54:15.162Z,6.10
2019-05-11T06:56:41.483Z,6.60
2019-05-11T06:59:07.927Z,6.43
2019-05-11T07:01:34.542Z,6.47
2019-05-11T07:04:00.870Z,5.87
2019-05-11T07:06:30.558Z,5.90
2019-05-11T07:08:55.497Z,6.00
2019-05-11T07:11:21.801Z,6.40
2019-05-11T07:13:48.166Z,6.33
2019-05-11T07:16:14.602Z,6.43
2019-05-11T07:18:41.001Z,5.50
2019-05-11T07:21:07.463Z,6.40
2019-05-11T07:23:33.821Z,5.97
2019-05-11T07:26:01.840Z,5.90
2019-05-11T07:28:28.023Z,5.60
2019-05-11T07:30:54.400Z,5.83
2019-05-11T07:33:20.649Z,5.40
2019-05-11T07:35:47.842Z,5.37
2019-05-11T07:38:14.348Z,4.50
2019-05-11T07:40:40.740Z,6.00
2019-05-11T07:43:09.678Z,6.10
2019-05-11T07:45:35.429Z,5.13
2019-05-11T07:48:01.673Z,5.70
2019-05-11T07:50:28.498Z,5.80
2019-05-11T07:52:55.003Z,5.37
2019-05-11T07:55:22.446Z,5.80
2019-05-11T07:57:48.770Z,4.63
2019-05-11T08:00:15.530Z,5.03
2019-05-11T08:02:41.906Z,5.73
2019-05-11T08:05:08.837Z,5.10
2019-05-11T08:07:41.512Z,5.90
2019-05-11T08:10:08.431Z,5.33
2019-05-11T08:12:34.834Z,5.37
2019-05-11T08:15:08.133Z,4.30
2019-05-11T08:17:29.459Z,2.60
2019-05-11T08:19:57.935Z,2.10
2019-05-11T08:22:28.640Z,2.10
2019-05-11T08:24:58.599Z,2.03
2019-05-11T08:27:25.244Z,2.00
2019-05-11T08:29:51.646Z,1.70
2019-05-11T08:32:18.412Z,1.50
2019-05-11T08:34:44.749Z,1.60
2019-05-11T08:37:13.429Z,1.37
2019-05-11T08:39:39.930Z,1.50
2019-05-11T08:42:08.546Z,1.70
2019-05-11T08:44:34.744Z,1.20
2019-05-11T08:47:03.810Z,1.40
2019-05-11T08:49:30.155Z,1.10
2019-05-11T08:51:57.877Z,1.47
2019-05-11T08:54:24.313Z,0.93
2019-05-11T08:56:50.786Z,1.10
2019-05-11T08:59:18.648Z,1.03
2019-05-11T09:01:45.274Z,1.63
2019-05-11T09:04:11.620Z,0.93
2019-05-11T09:06:38.132Z,1.07
2019-05-11T09:09:05.510Z,0.90
2019-05-11T09:11:38.969Z,0.90
2019-05-11T09:14:08.233Z,1.07
2019-05-11T09:16:34.475Z,0.70
2019-05-11T09:19:00.829Z,0.80
2019-05-11T09:21:28.136Z,1.07
2019-05-11T09:23:54.686Z,0.80
2019-05-11T09:26:20.942Z,0.80
2019-05-11T09:28:47.803Z,0.60
2019-05-11T09:31:14.031Z,0.87
2019-05-11T09:33:40.381Z,0.90
2019-05-11T09:36:08.515Z,0.80
2019-05-11T09:38:34.965Z,0.80
2019-05-11T09:41:01.398Z,0.97
2019-05-11T09:43:28.368Z,1.50
2019-05-11T09:45:54.903Z,0.90
2019-05-11T09:48:21.408Z,1.20
2019-05-11T09:50:48.224Z,1.20
2019-05-11T09:53:14.588Z,0.87
2019-05-11T09:55:40.855Z,1.10
2019-05-11T09:58:08.541Z,0.97
2019-05-11T10:00:35.451Z,0.80
2019-05-11T10:03:01.871Z,0.80
2019-05-11T10:05:28.800Z,1.07
2019-05-11T10:07:55.043Z,1.10
2019-05-11T10:10:21.394Z,0.90
2019-05-11T10:12:48.546Z,1.10
2019-05-11T10:15:18.661Z,1.00
2019-05-11T10:17:44.920Z,0.90
2019-05-11T10:20:11.214Z,1.00
2019-05-11T10:22:38.406Z,1.30
2019-05-11T10:25:09.006Z,1.17
2019-05-11T10:27:35.602Z,1.20
2019-05-11T10:30:01.887Z,0.80
2019-05-11T10:32:28.914Z,1.00
2019-05-11T10:34:55.142Z,1.07
2019-05-11T10:37:21.358Z,0.93
2019-05-11T10:39:48.829Z,1.53
2019-05-11T10:42:15.377Z,0.90
2019-05-11T10:44:41.594Z,0.87
2019-05-11T10:47:08.283Z,0.90
2019-05-11T10:49:34.806Z,0.83
2019-05-11T10:52:01.222Z,0.70
2019-05-11T10:54:28.675Z,0.50
2019-05-11T10:56:57.735Z,0.60
2019-05-11T10:59:23.649Z,0.60
2019-05-11T11:01:50.289Z,0.50
2019-05-11T11:04:18.404Z,0.50
2019-05-11T11:06:44.692Z,0.57
2019-05-11T11:09:11.178Z,0.60
2019-05-11T11:11:38.205Z,0.70
2019-05-11T11:14:04.866Z,0.70
2019-05-11T11:16:38.770Z,0.80
2019-05-11T11:18:59.334Z,0.80
2019-05-11T11:21:27.804Z,0.73
2019-05-11T11:23:53.906Z,0.80
2019-05-11T11:26:20.053Z,0.67
2019-05-11T11:28:47.826Z,0.90
2019-05-11T11:31:14.614Z,0.80
2019-05-11T11:33:40.983Z,0.77
2019-05-11T11:36:08.583Z,0.70
2019-05-11T11:38:37.116Z,0.70
2019-05-11T11:41:03.768Z,0.80
2019-05-11T11:43:31.513Z,1.03
2019-05-11T11:45:58.064Z,0.90
2019-05-11T11:48:24.422Z,0.90
2019-05-11T11:50:50.766Z,0.77
2019-05-11T11:53:18.815Z,0.80
2019-05-11T11:55:45.446Z,0.80
2019-05-11T11:58:11.685Z,0.90
2019-05-11T12:00:39.048Z,0.90
2019-05-11T12:03:07.866Z,0.90
2019-05-11T12:05:33.874Z,0.80
2019-05-11T12:08:00.510Z,0.70
2019-05-11T12:10:28.666Z,0.80
2019-05-11T12:12:55.067Z,0.80
2019-05-11T12:15:21.442Z,1.00
2019-05-11T12:17:48.336Z,0.90
2019-05-11T12:20:14.986Z,0.80
2019-05-11T12:22:41.121Z,0.77
2019-05-11T12:25:07.918Z,0.50
2019-05-11T12:27:34.594Z,0.60
2019-05-11T12:30:00.830Z,0.70
2019-05-11T12:32:39.913Z,1.00
2019-05-11T12:35:08.639Z,0.80
2019-05-11T12:37:35.042Z,0.80
2019-05-11T12:40:01.778Z,0.70
2019-05-11T12:42:28.432Z,0.87
2019-05-11T12:44:55.217Z,0.60
2019-05-11T12:47:24.973Z,0.93
2019-05-11T12:49:49.787Z,0.70
2019-05-11T12:52:18.269Z,0.63
2019-05-11T12:54:44.166Z,1.17
2019-05-11T12:57:10.310Z,0.80
2019-05-11T12:59:38.122Z,0.70
2019-05-11T13:02:04.491Z,0.60
2019-05-11T13:04:30.982Z,0.50
2019-05-11T13:06:58.145Z,0.40
2019-05-11T13:09:24.634Z,0.40
2019-05-11T13:11:50.985Z,0.50
2019-05-11T13:14:19.582Z,0.33
2019-05-11T13:16:48.136Z,0.50
2019-05-11T13:19:14.285Z,0.53
2019-05-11T13:21:40.856Z,0.63
2019-05-11T13:24:08.404Z,0.50
2019-05-11T13:26:35.002Z,0.60
2019-05-11T13:29:01.278Z,0.93
2019-05-11T13:31:27.905Z,0.60
2019-05-11T13:33:54.618Z,0.70
2019-05-11T13:36:20.958Z,1.13
2019-05-11T13:38:48.251Z,0.97
2019-05-11T13:41:14.909Z,0.60
2019-05-11T13:43:41.214Z,0.47
2019-05-11T13:46:08.724Z,0.90
2019-05-11T13:48:35.474Z,1.10
2019-05-11T13:51:01.617Z,2.20
2019-05-11T13:53:27.760Z,1.80
2019-05-11T13:55:54.045Z,0.83
2019-05-11T13:58:20.378Z,0.80
2019-05-11T14:00:48.101Z,1.40
2019-05-11T14:03:14.615Z,2.33
2019-05-11T14:05:40.739Z,1.30
2019-05-11T14:08:08.113Z,1.10
2019-05-11T14:10:34.645Z,1.03
2019-05-11T14:13:01.019Z,1.20
2019-05-11T14:15:28.038Z,1.10
2019-05-11T14:18:05.642Z,1.10
2019-05-11T14:20:22.619Z,0.97
2019-05-11T14:22:48.918Z,0.80
2019-05-11T14:25:15.410Z,1.00
2019-05-11T14:27:41.970Z,1.83
2019-05-11T14:30:08.769Z,1.40
2019-05-11T14:32:35.253Z,1.20
2019-05-11T14:35:02.707Z,1.03
2019-05-11T14:37:28.858Z,1.00
2019-05-11T14:39:55.124Z,0.90
2019-05-11T14:42:22.460Z,1.20
2019-05-11T14:44:48.877Z,1.83
2019-05-11T14:47:15.229Z,2.20
2019-05-11T14:49:41.606Z,1.60
2019-05-11T14:52:08.393Z,1.53
2019-05-11T14:54:35.022Z,1.30
2019-05-11T14:57:01.309Z,1.40
2019-05-11T14:59:28.530Z,1.20
2019-05-11T15:01:55.075Z,0.97
2019-05-11T15:04:21.489Z,1.20
2019-05-11T15:06:49.011Z,1.13
2019-05-11T15:09:18.098Z,1.13
2019-05-11T15:11:43.647Z,0.90
2019-05-11T15:14:10.083Z,0.87
2019-05-11T15:16:38.332Z,1.30
2019-05-11T15:19:04.705Z,1.27
2019-05-11T15:21:31.004Z,1.10
2019-05-11T15:23:58.075Z,1.27
2019-05-11T15:26:24.590Z,1.30
2019-05-11T15:28:50.938Z,1.17
2019-05-11T15:31:22.104Z,1.50
2019-05-11T15:33:45.490Z,1.33
2019-05-11T15:36:11.817Z,1.80
2019-05-11T15:38:38.526Z,1.27
2019-05-11T15:41:04.962Z,1.47
2019-05-11T15:43:31.116Z,1.10
2019-05-11T15:45:57.937Z,1.50
2019-05-11T15:48:24.418Z,1.10
2019-05-11T15:50:50.665Z,1.20
2019-05-11T15:53:17.881Z,0.80
2019-05-11T15:55:44.366Z,1.00
2019-05-11T15:58:10.964Z,1.13
2019-05-11T16:00:39.692Z,1.17
2019-05-11T16:03:07.992Z,1.20
2019-05-11T16:05:34.043Z,1.10
2019-05-11T16:08:01.750Z,1.10
2019-05-11T16:10:28.022Z,1.20
2019-05-11T16:12:54.170Z,0.90
2019-05-11T16:15:20.786Z,0.90
2019-05-11T16:17:48.630Z,1.03
2019-05-11T16:20:17.549Z,0.93
2019-05-11T16:22:43.822Z,0.80
2019-05-11T16:25:10.098Z,1.17
2019-05-11T16:27:38.023Z,1.20
2019-05-11T16:30:04.762Z,0.90
2019-05-11T16:32:31.094Z,0.90
2019-05-11T16:34:57.651Z,0.90
2019-05-11T16:37:25.645Z,0.70
2019-05-11T16:39:51.798Z,1.00
2019-05-11T16:42:18.130Z,0.80
2019-05-11T16:44:44.376Z,1.00
2019-05-11T16:47:10.714Z,0.80
2019-05-11T16:49:38.429Z,0.63
2019-05-11T16:52:05.010Z,0.80
2019-05-11T16:54:31.386Z,0.60
2019-05-11T16:56:58.061Z,0.80
2019-05-11T16:59:24.378Z,0.73
2019-05-11T17:01:50.694Z,1.00
2019-05-11T17:04:17.022Z,0.83
2019-05-11T17:06:43.150Z,0.87
2019-05-11T17:09:09.426Z,1.00
2019-05-11T17:11:38.082Z,0.90
2019-05-11T17:14:03.859Z,1.07
2019-05-11T17:16:30.166Z,1.00
2019-05-11T17:18:58.426Z,1.03
2019-05-11T17:21:24.645Z,0.93
2019-05-11T17:23:50.820Z,0.90
2019-05-11T17:26:19.065Z,1.00
2019-05-11T17:28:45.295Z,1.10
2019-05-11T17:31:11.812Z,0.93
2019-05-11T17:33:38.651Z,0.73
2019-05-11T17:36:05.121Z,0.47
2019-05-11T17:38:31.416Z,0.50
2019-05-11T17:40:57.819Z,0.40
2019-05-11T17:43:24.290Z,0.60
2019-05-11T17:45:50.705Z,0.50
2019-05-11T17:48:17.835Z,0.40
2019-05-11T17:50:44.282Z,0.40
2019-05-11T17:53:10.633Z,0.40
2019-05-11T17:55:38.262Z,0.50
2019-05-11T17:58:05.037Z,0.30
2019-05-11T18:00:31.402Z,0.40
2019-05-11T18:02:58.364Z,0.30
2019-05-11T18:05:25.893Z,0.20
2019-05-11T18:07:52.204Z,0.30
2019-05-11T18:10:18.738Z,0.30
2019-05-11T18:12:45.299Z,0.30
2019-05-11T18:15:11.811Z,0.13
2019-05-11T18:17:38.166Z,0.40
2019-05-11T18:20:14.817Z,0.30
2019-05-11T18:22:33.159Z,0.60
2019-05-11T18:24:59.779Z,0.50
2019-05-11T18:27:27.719Z,0.23
2019-05-11T18:29:54.418Z,0.40
2019-05-11T18:32:20.562Z,0.50
2019-05-11T18:34:48.484Z,0.60
2019-05-11T18:37:14.774Z,0.33
2019-05-11T18:39:41.022Z,0.30
2019-05-11T18:42:08.289Z,0.20
2019-05-11T18:44:34.683Z,0.30
2019-05-11T18:47:00.986Z,0.33
2019-05-11T18:49:28.544Z,0.70
2019-05-11T18:51:54.949Z,0.30
2019-05-11T18:54:21.300Z,0.50
2019-05-11T18:56:49.311Z,0.40
2019-05-11T18:59:15.666Z,0.60
2019-05-11T19:01:42.025Z,0.80
2019-05-11T19:04:08.578Z,0.80
2019-05-11T19:06:34.896Z,0.73
2019-05-11T19:09:01.490Z,1.10
2019-05-11T19:11:29.295Z,0.90
2019-05-11T19:13:59.123Z,0.70
2019-05-11T19:16:25.470Z,0.40
2019-05-11T19:18:51.817Z,0.50
2019-05-11T19:21:18.355Z,0.50
2019-05-11T19:23:44.771Z,0.70
2019-05-11T19:26:11.450Z,0.60
2019-05-11T19:28:38.469Z,0.50
2019-05-11T19:31:08.317Z,0.80
2019-05-11T19:33:34.701Z,0.67
2019-05-11T19:36:00.969Z,0.60
2019-05-11T19:38:41.698Z,0.40
2019-05-11T19:41:08.820Z,0.70
2019-05-11T19:43:35.327Z,0.40
2019-05-11T19:46:01.630Z,0.50
2019-05-11T19:48:28.402Z,1.17
2019-05-11T19:51:06.536Z,0.93
2019-05-11T19:53:23.154Z,1.07
2019-05-11T19:55:49.607Z,0.70
2019-05-11T19:58:18.341Z,0.70
2019-05-11T20:00:44.189Z,0.60
2019-05-11T20:03:10.502Z,0.57
2019-05-11T20:05:38.020Z,0.80
2019-05-11T20:08:04.562Z,0.53
2019-05-11T20:10:30.981Z,0.60
2019-05-11T20:12:58.725Z,0.63
2019-05-11T20:15:25.802Z,0.57
2019-05-11T20:17:52.411Z,0.50
2019-05-11T20:20:18.974Z,0.50
2019-05-11T20:22:48.231Z,0.80
2019-05-11T20:25:14.735Z,0.60
2019-05-11T20:27:41.454Z,0.50
2019-05-11T20:30:08.592Z,0.70
2019-05-11T20:32:35.153Z,0.70
2019-05-11T20:35:01.481Z,0.60
2019-05-11T20:37:28.806Z,0.70
2019-05-11T20:39:55.494Z,0.90
2019-05-11T20:42:22.123Z,0.90
2019-05-11T20:44:48.949Z,0.60
2019-05-11T20:47:17.434Z,1.00
2019-05-11T20:49:43.536Z,0.90
2019-05-11T20:52:09.862Z,1.00
2019-05-11T20:54:38.464Z,0.80
2019-05-11T20:57:04.347Z,1.10
2019-05-11T20:59:31.906Z,1.00
2019-05-11T21:01:58.943Z,1.07
2019-05-11T21:04:28.032Z,0.97
2019-05-11T21:06:53.418Z,1.20
2019-05-11T21:09:19.709Z,0.97
2019-05-11T21:11:47.958Z,1.10
2019-05-11T21:14:14.480Z,0.80
2019-05-11T21:16:40.874Z,0.97
2019-05-11T21:19:08.232Z,0.73
2019-05-11T21:21:46.285Z,0.63
2019-05-11T21:24:03.340Z,1.10
2019-05-11T21:26:29.702Z,0.80
2019-05-11T21:28:58.011Z,0.90
2019-05-11T21:31:24.829Z,0.80
2019-05-11T21:33:51.448Z,1.00
2019-05-11T21:36:18.137Z,1.10
2019-05-11T21:38:44.674Z,0.90
2019-05-11T21:41:11.883Z,1.30
2019-05-11T21:43:38.974Z,0.80
2019-05-11T21:46:08.001Z,1.30
2019-05-11T21:48:33.787Z,1.10
2019-05-11T21:51:00.049Z,1.60
2019-05-11T21:53:28.759Z,1.50
2019-05-11T21:55:58.479Z,1.40
2019-05-11T21:58:25.442Z,1.00
2019-05-11T22:00:51.757Z,1.00
2019-05-11T22:03:18.781Z,1.50
2019-05-11T22:05:45.322Z,1.20
2019-05-11T22:08:12.160Z,1.20
2019-05-11T22:10:38.705Z,1.20
2019-05-11T22:13:05.111Z,1.30
2019-05-11T22:15:33.309Z,1.27
2019-05-11T22:17:59.490Z,1.80
2019-05-11T22:20:25.757Z,1.50
2019-05-11T22:22:51.997Z,1.50
2019-05-11T22:25:18.500Z,1.53
2019-05-11T22:27:44.794Z,1.57
2019-05-11T22:30:11.139Z,1.13
2019-05-11T22:32:38.373Z,1.10
2019-05-11T22:35:05.082Z,1.27
2019-05-11T22:37:32.526Z,0.87
2019-05-11T22:39:58.674Z,1.20
2019-05-11T22:42:25.066Z,1.30
2019-05-11T22:44:51.494Z,1.30
2019-05-11T22:47:17.927Z,1.23
2019-05-11T22:49:44.322Z,1.57
2019-05-11T22:52:10.463Z,1.43
2019-05-11T22:54:38.308Z,1.50
2019-05-11T22:57:04.998Z,1.70
2019-05-11T22:59:31.658Z,1.33
2019-05-11T23:01:57.914Z,2.03
2019-05-11T23:04:24.259Z,1.73
2019-05-11T23:06:50.499Z,1.87
2019-05-11T23:09:18.435Z,1.80
2019-05-11T23:11:44.826Z,1.77
2019-05-11T23:14:11.012Z,1.63
2019-05-11T23:16:37.571Z,1.67
2019-05-11T23:19:03.812Z,1.73
2019-05-11T23:21:30.391Z,1.90
2019-05-11T23:23:58.297Z,1.77
2019-05-11T23:26:24.664Z,1.80
2019-05-11T23:28:50.822Z,1.90
2019-05-11T23:31:17.154Z,1.93
2019-05-11T23:33:43.577Z,1.97
2019-05-11T23:36:09.867Z,2.20
2019-05-11T23:38:38.497Z,2.33
2019-05-11T23:41:04.270Z,2.37
2019-05-11T23:43:30.571Z,2.70
2019-05-11T23:45:57.756Z,2.27
2019-05-11T23:48:24.278Z,2.00
2019-05-11T23:50:50.526Z,2.20
2019-05-11T23:53:17.863Z,2.00
2019-05-11T23:55:44.090Z,2.40
2019-05-11T23:58:10.314Z,2.40
